sensor_id;sensor_type;location;lat;lon;timestamp;P1;durP1;ratioP1;P2;durP2;ratioP2
16640;SDS011;8434;47.990;7.880;2023-05-31T00:00:43;4.37;;;2.43;;
16640;SDS011;8434;47.990;7.880;2023-05-31T00:03:29;4.23;;;2.37;;
16640;SDS011;8434;47.990;7.880;2023-05-31T00:06:14;3.40;;;1.90;;
16640;SDS011;8434;47.990;7.880;2023-05-31T00:09:00;3.83;;;2.23;;
16640;SDS011;8434;47.990;7.880;2023-05-31T00:11:45;4.30;;;2.70;;
16640;SDS011;8434;47.990;7.880;2023-05-31T00:14:32;4.97;;;2.37;;
16640;SDS011;8434;47.990;7.880;2023-05-31T00:17:17;6.93;;;2.77;;
16640;SDS011;8434;47.990;7.880;2023-05-31T00:20:03;3.00;;;2.00;;
16640;SDS011;8434;47.990;7.880;2023-05-31T00:22:49;6.57;;;2.47;;
16640;SDS011;8434;47.990;7.880;2023-05-31T00:25:34;5.67;;;2.70;;
16640;SDS011;8434;47.990;7.880;2023-05-31T00:28:20;5.17;;;2.57;;
16640;SDS011;8434;47.990;7.880;2023-05-31T00:31:06;5.23;;;2.10;;
16640;SDS011;8434;47.990;7.880;2023-05-31T00:33:52;5.53;;;2.40;;
16640;SDS011;8434;47.990;7.880;2023-05-31T00:36:37;3.67;;;2.73;;
16640;SDS011;8434;47.990;7.880;2023-05-31T00:39:23;3.67;;;2.50;;
16640;SDS011;8434;47.990;7.880;2023-05-31T00:42:09;5.37;;;2.70;;
16640;SDS011;8434;47.990;7.880;2023-05-31T00:44:54;3.73;;;2.50;;
16640;SDS011;8434;47.990;7.880;2023-05-31T00:47:41;9.57;;;3.17;;
16640;SDS011;8434;47.990;7.880;2023-05-31T00:50:26;5.80;;;2.60;;
16640;SDS011;8434;47.990;7.880;2023-05-31T00:53:13;4.47;;;2.53;;
16640;SDS011;8434;47.990;7.880;2023-05-31T00:55:59;4.83;;;2.70;;
16640;SDS011;8434;47.990;7.880;2023-05-31T00:58:44;7.17;;;2.63;;
16640;SDS011;8434;47.990;7.880;2023-05-31T01:01:30;4.00;;;2.47;;
16640;SDS011;8434;47.990;7.880;2023-05-31T01:04:18;7.37;;;2.83;;
16640;SDS011;8434;47.990;7.880;2023-05-31T01:07:03;3.90;;;3.20;;
16640;SDS011;8434;47.990;7.880;2023-05-31T01:09:49;5.17;;;2.70;;
16640;SDS011;8434;47.990;7.880;2023-05-31T01:12:38;4.33;;;2.40;;
16640;SDS011;8434;47.990;7.880;2023-05-31T01:15:25;7.17;;;3.00;;
16640;SDS011;8434;47.990;7.880;2023-05-31T01:18:14;5.70;;;3.20;;
16640;SDS011;8434;47.990;7.880;2023-05-31T01:21:05;3.33;;;2.90;;
16640;SDS011;8434;47.990;7.880;2023-05-31T01:23:58;5.83;;;3.00;;
16640;SDS011;8434;47.990;7.880;2023-05-31T01:26:46;4.70;;;2.60;;
16640;SDS011;8434;47.990;7.880;2023-05-31T01:29:32;6.50;;;3.03;;
16640;SDS011;8434;47.990;7.880;2023-05-31T01:32:19;6.10;;;3.00;;
16640;SDS011;8434;47.990;7.880;2023-05-31T01:35:06;3.53;;;2.87;;
16640;SDS011;8434;47.990;7.880;2023-05-31T01:37:51;5.63;;;3.20;;
16640;SDS011;8434;47.990;7.880;2023-05-31T01:40:36;8.10;;;3.10;;
16640;SDS011;8434;47.990;7.880;2023-05-31T01:43:25;3.63;;;2.60;;
16640;SDS011;8434;47.990;7.880;2023-05-31T01:46:12;6.67;;;3.20;;
16640;SDS011;8434;47.990;7.880;2023-05-31T01:48:58;4.20;;;3.30;;
16640;SDS011;8434;47.990;7.880;2023-05-31T01:51:45;5.43;;;3.17;;
16640;SDS011;8434;47.990;7.880;2023-05-31T01:54:32;3.63;;;2.90;;
16640;SDS011;8434;47.990;7.880;2023-05-31T01:57:18;8.27;;;3.83;;
16640;SDS011;8434;47.990;7.880;2023-05-31T02:00:06;5.13;;;3.10;;
16640;SDS011;8434;47.990;7.880;2023-05-31T02:02:59;4.80;;;3.40;;
16640;SDS011;8434;47.990;7.880;2023-05-31T02:05:54;5.27;;;3.13;;
16640;SDS011;8434;47.990;7.880;2023-05-31T02:08:40;5.83;;;3.20;;
16640;SDS011;8434;47.990;7.880;2023-05-31T02:11:25;4.80;;;2.67;;
16640;SDS011;8434;47.990;7.880;2023-05-31T02:14:13;5.97;;;3.33;;
16640;SDS011;8434;47.990;7.880;2023-05-31T02:17:00;5.63;;;3.30;;
16640;SDS011;8434;47.990;7.880;2023-05-31T02:19:45;5.20;;;3.27;;
16640;SDS011;8434;47.990;7.880;2023-05-31T02:22:31;6.23;;;3.30;;
16640;SDS011;8434;47.990;7.880;2023-05-31T02:25:16;5.00;;;3.23;;
16640;SDS011;8434;47.990;7.880;2023-05-31T02:28:02;5.27;;;3.27;;
16640;SDS011;8434;47.990;7.880;2023-05-31T02:30:54;5.50;;;3.47;;
16640;SDS011;8434;47.990;7.880;2023-05-31T02:33:42;4.80;;;3.03;;
16640;SDS011;8434;47.990;7.880;2023-05-31T02:36:27;4.53;;;3.27;;
16640;SDS011;8434;47.990;7.880;2023-05-31T02:39:13;5.03;;;2.83;;
16640;SDS011;8434;47.990;7.880;2023-05-31T02:41:59;4.33;;;3.30;;
16640;SDS011;8434;47.990;7.880;2023-05-31T02:44:46;5.30;;;3.67;;
16640;SDS011;8434;47.990;7.880;2023-05-31T02:47:31;7.07;;;3.40;;
16640;SDS011;8434;47.990;7.880;2023-05-31T02:50:18;4.23;;;3.43;;
16640;SDS011;8434;47.990;7.880;2023-05-31T02:53:12;4.93;;;3.23;;
16640;SDS011;8434;47.990;7.880;2023-05-31T02:56:08;6.07;;;3.50;;
16640;SDS011;8434;47.990;7.880;2023-05-31T02:58:53;6.17;;;3.33;;
16640;SDS011;8434;47.990;7.880;2023-05-31T03:01:58;4.03;;;3.10;;
16640;SDS011;8434;47.990;7.880;2023-05-31T03:05:03;7.43;;;3.57;;
16640;SDS011;8434;47.990;7.880;2023-05-31T03:07:52;5.57;;;3.40;;
16640;SDS011;8434;47.990;7.880;2023-05-31T03:10:37;8.50;;;4.20;;
16640;SDS011;8434;47.990;7.880;2023-05-31T03:13:23;5.00;;;3.30;;
16640;SDS011;8434;47.990;7.880;2023-05-31T03:16:08;5.43;;;3.73;;
16640;SDS011;8434;47.990;7.880;2023-05-31T03:18:53;6.80;;;3.83;;
16640;SDS011;8434;47.990;7.880;2023-05-31T03:21:39;5.60;;;3.23;;
16640;SDS011;8434;47.990;7.880;2023-05-31T03:24:26;6.27;;;3.70;;
16640;SDS011;8434;47.990;7.880;2023-05-31T03:27:12;6.20;;;3.63;;
16640;SDS011;8434;47.990;7.880;2023-05-31T03:29:58;5.17;;;3.60;;
16640;SDS011;8434;47.990;7.880;2023-05-31T03:32:44;6.57;;;4.30;;
16640;SDS011;8434;47.990;7.880;2023-05-31T03:35:29;6.83;;;4.10;;
16640;SDS011;8434;47.990;7.880;2023-05-31T03:38:14;5.13;;;3.77;;
16640;SDS011;8434;47.990;7.880;2023-05-31T03:41:01;7.53;;;4.07;;
16640;SDS011;8434;47.990;7.880;2023-05-31T03:43:47;7.17;;;3.37;;
16640;SDS011;8434;47.990;7.880;2023-05-31T03:46:35;5.07;;;3.60;;
16640;SDS011;8434;47.990;7.880;2023-05-31T03:49:20;4.50;;;3.63;;
16640;SDS011;8434;47.990;7.880;2023-05-31T03:52:06;6.07;;;3.83;;
16640;SDS011;8434;47.990;7.880;2023-05-31T03:54:53;5.93;;;3.37;;
16640;SDS011;8434;47.990;7.880;2023-05-31T03:57:40;5.10;;;3.40;;
16640;SDS011;8434;47.990;7.880;2023-05-31T04:00:26;5.47;;;3.60;;
16640;SDS011;8434;47.990;7.880;2023-05-31T04:03:12;5.27;;;4.37;;
16640;SDS011;8434;47.990;7.880;2023-05-31T04:05:57;7.17;;;4.37;;
16640;SDS011;8434;47.990;7.880;2023-05-31T04:08:42;8.20;;;4.30;;
16640;SDS011;8434;47.990;7.880;2023-05-31T04:11:28;5.10;;;3.60;;
16640;SDS011;8434;47.990;7.880;2023-05-31T04:14:15;5.47;;;3.57;;
16640;SDS011;8434;47.990;7.880;2023-05-31T04:17:01;5.20;;;4.10;;
16640;SDS011;8434;47.990;7.880;2023-05-31T04:19:47;6.50;;;4.17;;
16640;SDS011;8434;47.990;7.880;2023-05-31T04:22:32;7.67;;;4.27;;
16640;SDS011;8434;47.990;7.880;2023-05-31T04:25:18;5.27;;;3.43;;
16640;SDS011;8434;47.990;7.880;2023-05-31T04:28:03;5.50;;;3.90;;
16640;SDS011;8434;47.990;7.880;2023-05-31T04:30:51;4.90;;;3.53;;
16640;SDS011;8434;47.990;7.880;2023-05-31T04:33:37;5.27;;;3.90;;
16640;SDS011;8434;47.990;7.880;2023-05-31T04:36:25;5.27;;;3.87;;
16640;SDS011;8434;47.990;7.880;2023-05-31T04:39:17;4.83;;;3.87;;
16640;SDS011;8434;47.990;7.880;2023-05-31T04:42:04;5.57;;;3.87;;
16640;SDS011;8434;47.990;7.880;2023-05-31T04:44:49;7.33;;;4.53;;
16640;SDS011;8434;47.990;7.880;2023-05-31T04:47:36;4.77;;;3.97;;
16640;SDS011;8434;47.990;7.880;2023-05-31T04:50:22;4.33;;;3.90;;
16640;SDS011;8434;47.990;7.880;2023-05-31T04:53:08;11.40;;;4.67;;
16640;SDS011;8434;47.990;7.880;2023-05-31T04:55:53;5.07;;;4.30;;
16640;SDS011;8434;47.990;7.880;2023-05-31T04:58:39;7.83;;;4.33;;
16640;SDS011;8434;47.990;7.880;2023-05-31T05:01:25;6.67;;;4.30;;
16640;SDS011;8434;47.990;7.880;2023-05-31T05:04:25;5.63;;;4.07;;
16640;SDS011;8434;47.990;7.880;2023-05-31T05:07:10;7.43;;;4.20;;
16640;SDS011;8434;47.990;7.880;2023-05-31T05:09:56;9.37;;;3.90;;
16640;SDS011;8434;47.990;7.880;2023-05-31T05:12:41;7.03;;;4.13;;
16640;SDS011;8434;47.990;7.880;2023-05-31T05:15:27;5.67;;;3.80;;
16640;SDS011;8434;47.990;7.880;2023-05-31T05:18:13;6.60;;;3.63;;
16640;SDS011;8434;47.990;7.880;2023-05-31T05:21:01;5.67;;;3.83;;
16640;SDS011;8434;47.990;7.880;2023-05-31T05:23:49;6.77;;;3.90;;
16640;SDS011;8434;47.990;7.880;2023-05-31T05:26:35;8.97;;;4.37;;
16640;SDS011;8434;47.990;7.880;2023-05-31T05:29:20;8.63;;;4.30;;
16640;SDS011;8434;47.990;7.880;2023-05-31T05:32:06;5.20;;;4.13;;
16640;SDS011;8434;47.990;7.880;2023-05-31T05:34:51;5.43;;;3.53;;
16640;SDS011;8434;47.990;7.880;2023-05-31T05:37:38;4.13;;;3.17;;
16640;SDS011;8434;47.990;7.880;2023-05-31T05:40:25;5.07;;;3.20;;
16640;SDS011;8434;47.990;7.880;2023-05-31T05:43:10;6.27;;;3.50;;
16640;SDS011;8434;47.990;7.880;2023-05-31T05:46:12;6.10;;;3.87;;
16640;SDS011;8434;47.990;7.880;2023-05-31T05:48:58;6.33;;;4.23;;
16640;SDS011;8434;47.990;7.880;2023-05-31T05:51:43;4.77;;;3.37;;
16640;SDS011;8434;47.990;7.880;2023-05-31T05:54:30;5.63;;;3.20;;
16640;SDS011;8434;47.990;7.880;2023-05-31T05:57:16;4.43;;;3.08;;
16640;SDS011;8434;47.990;7.880;2023-05-31T06:00:04;4.68;;;2.80;;
16640;SDS011;8434;47.990;7.880;2023-05-31T06:02:57;4.25;;;2.95;;
16640;SDS011;8434;47.990;7.880;2023-05-31T06:05:43;5.90;;;3.33;;
16640;SDS011;8434;47.990;7.880;2023-05-31T06:08:28;7.43;;;3.05;;
16640;SDS011;8434;47.990;7.880;2023-05-31T06:11:16;5.47;;;2.83;;
16640;SDS011;8434;47.990;7.880;2023-05-31T06:14:02;4.90;;;2.70;;
16640;SDS011;8434;47.990;7.880;2023-05-31T06:16:55;5.70;;;2.75;;
16640;SDS011;8434;47.990;7.880;2023-05-31T06:19:40;5.05;;;2.78;;
16640;SDS011;8434;47.990;7.880;2023-05-31T06:22:26;2.88;;;2.17;;
16640;SDS011;8434;47.990;7.880;2023-05-31T06:25:11;2.97;;;2.40;;
16640;SDS011;8434;47.990;7.880;2023-05-31T06:27:58;2.88;;;2.10;;
16640;SDS011;8434;47.990;7.880;2023-05-31T06:30:44;3.63;;;2.08;;
16640;SDS011;8434;47.990;7.880;2023-05-31T06:33:30;3.42;;;2.22;;
16640;SDS011;8434;47.990;7.880;2023-05-31T06:36:15;3.85;;;2.38;;
16640;SDS011;8434;47.990;7.880;2023-05-31T06:39:01;2.75;;;2.50;;
16640;SDS011;8434;47.990;7.880;2023-05-31T06:41:46;4.07;;;2.42;;
16640;SDS011;8434;47.990;7.880;2023-05-31T06:45:00;3.20;;;2.13;;
16640;SDS011;8434;47.990;7.880;2023-05-31T06:48:05;4.22;;;2.60;;
16640;SDS011;8434;47.990;7.880;2023-05-31T06:51:26;4.57;;;2.78;;
16640;SDS011;8434;47.990;7.880;2023-05-31T06:54:30;4.75;;;2.53;;
16640;SDS011;8434;47.990;7.880;2023-05-31T06:57:17;4.13;;;2.22;;
16640;SDS011;8434;47.990;7.880;2023-05-31T07:00:05;3.42;;;2.25;;
16640;SDS011;8434;47.990;7.880;2023-05-31T07:02:51;3.88;;;2.47;;
16640;SDS011;8434;47.990;7.880;2023-05-31T07:05:36;4.40;;;2.40;;
16640;SDS011;8434;47.990;7.880;2023-05-31T07:08:24;6.25;;;2.70;;
16640;SDS011;8434;47.990;7.880;2023-05-31T07:11:28;4.93;;;2.42;;
16640;SDS011;8434;47.990;7.880;2023-05-31T07:14:14;5.15;;;2.60;;
16640;SDS011;8434;47.990;7.880;2023-05-31T07:17:01;3.17;;;2.60;;
16640;SDS011;8434;47.990;7.880;2023-05-31T07:19:46;3.15;;;2.10;;
16640;SDS011;8434;47.990;7.880;2023-05-31T07:22:32;3.25;;;2.47;;
16640;SDS011;8434;47.990;7.880;2023-05-31T07:25:18;4.70;;;2.47;;
16640;SDS011;8434;47.990;7.880;2023-05-31T07:28:03;5.68;;;2.80;;
16640;SDS011;8434;47.990;7.880;2023-05-31T07:30:49;3.90;;;2.08;;
16640;SDS011;8434;47.990;7.880;2023-05-31T07:33:36;3.47;;;2.40;;
16640;SDS011;8434;47.990;7.880;2023-05-31T07:36:21;3.63;;;2.45;;
16640;SDS011;8434;47.990;7.880;2023-05-31T07:39:09;4.93;;;2.40;;
16640;SDS011;8434;47.990;7.880;2023-05-31T07:41:54;3.67;;;2.33;;
16640;SDS011;8434;47.990;7.880;2023-05-31T07:44:40;4.05;;;2.17;;
16640;SDS011;8434;47.990;7.880;2023-05-31T07:47:25;4.10;;;2.50;;
16640;SDS011;8434;47.990;7.880;2023-05-31T07:50:12;4.20;;;2.40;;
16640;SDS011;8434;47.990;7.880;2023-05-31T07:52:57;5.53;;;2.70;;
16640;SDS011;8434;47.990;7.880;2023-05-31T07:55:43;4.88;;;2.80;;
16640;SDS011;8434;47.990;7.880;2023-05-31T07:58:28;6.30;;;2.47;;
16640;SDS011;8434;47.990;7.880;2023-05-31T08:01:13;5.75;;;2.60;;
16640;SDS011;8434;47.990;7.880;2023-05-31T08:04:04;3.58;;;2.20;;
16640;SDS011;8434;47.990;7.880;2023-05-31T08:06:51;5.25;;;2.88;;
16640;SDS011;8434;47.990;7.880;2023-05-31T08:09:36;5.47;;;2.55;;
16640;SDS011;8434;47.990;7.880;2023-05-31T08:12:22;3.63;;;2.35;;
16640;SDS011;8434;47.990;7.880;2023-05-31T08:15:08;5.65;;;2.92;;
16640;SDS011;8434;47.990;7.880;2023-05-31T08:17:53;3.35;;;2.30;;
16640;SDS011;8434;47.990;7.880;2023-05-31T08:20:39;3.40;;;2.67;;
16640;SDS011;8434;47.990;7.880;2023-05-31T08:23:25;8.35;;;2.72;;
16640;SDS011;8434;47.990;7.880;2023-05-31T08:26:11;4.57;;;2.40;;
16640;SDS011;8434;47.990;7.880;2023-05-31T08:28:56;7.90;;;2.95;;
16640;SDS011;8434;47.990;7.880;2023-05-31T08:31:42;5.05;;;2.60;;
16640;SDS011;8434;47.990;7.880;2023-05-31T08:34:27;4.68;;;2.58;;
16640;SDS011;8434;47.990;7.880;2023-05-31T08:37:12;3.50;;;2.60;;
16640;SDS011;8434;47.990;7.880;2023-05-31T08:39:59;5.57;;;2.60;;
16640;SDS011;8434;47.990;7.880;2023-05-31T08:42:47;4.35;;;2.70;;
16640;SDS011;8434;47.990;7.880;2023-05-31T08:45:33;5.15;;;2.70;;
16640;SDS011;8434;47.990;7.880;2023-05-31T08:48:21;3.15;;;2.40;;
16640;SDS011;8434;47.990;7.880;2023-05-31T08:51:06;6.47;;;2.70;;
16640;SDS011;8434;47.990;7.880;2023-05-31T08:53:52;3.75;;;2.80;;
16640;SDS011;8434;47.990;7.880;2023-05-31T08:56:42;3.92;;;2.55;;
16640;SDS011;8434;47.990;7.880;2023-05-31T08:59:28;5.85;;;3.05;;
16640;SDS011;8434;47.990;7.880;2023-05-31T09:02:13;5.88;;;2.60;;
16640;SDS011;8434;47.990;7.880;2023-05-31T09:04:59;4.43;;;3.13;;
16640;SDS011;8434;47.990;7.880;2023-05-31T09:07:44;6.68;;;2.60;;
16640;SDS011;8434;47.990;7.880;2023-05-31T09:10:31;4.13;;;3.10;;
16640;SDS011;8434;47.990;7.880;2023-05-31T09:13:17;5.22;;;2.90;;
16640;SDS011;8434;47.990;7.880;2023-05-31T09:16:03;2.95;;;2.47;;
16640;SDS011;8434;47.990;7.880;2023-05-31T09:18:49;4.38;;;2.65;;
16640;SDS011;8434;47.990;7.880;2023-05-31T09:21:44;4.53;;;2.85;;
16640;SDS011;8434;47.990;7.880;2023-05-31T09:24:30;3.67;;;2.85;;
16640;SDS011;8434;47.990;7.880;2023-05-31T09:27:16;5.97;;;3.20;;
16640;SDS011;8434;47.990;7.880;2023-05-31T09:30:05;5.30;;;2.95;;
16640;SDS011;8434;47.990;7.880;2023-05-31T09:32:53;6.25;;;2.72;;
16640;SDS011;8434;47.990;7.880;2023-05-31T09:35:41;6.32;;;2.92;;
16640;SDS011;8434;47.990;7.880;2023-05-31T09:38:40;6.72;;;3.17;;
16640;SDS011;8434;47.990;7.880;2023-05-31T09:41:26;5.63;;;3.13;;
16640;SDS011;8434;47.990;7.880;2023-05-31T09:44:12;4.82;;;2.88;;
16640;SDS011;8434;47.990;7.880;2023-05-31T09:46:59;5.97;;;2.67;;
16640;SDS011;8434;47.990;7.880;2023-05-31T09:49:55;4.28;;;2.92;;
16640;SDS011;8434;47.990;7.880;2023-05-31T09:52:40;4.63;;;3.60;;
16640;SDS011;8434;47.990;7.880;2023-05-31T09:55:38;4.68;;;2.67;;
16640;SDS011;8434;47.990;7.880;2023-05-31T09:58:28;6.38;;;3.30;;
16640;SDS011;8434;47.990;7.880;2023-05-31T10:01:15;4.72;;;2.97;;
16640;SDS011;8434;47.990;7.880;2023-05-31T10:04:02;4.40;;;3.05;;
16640;SDS011;8434;47.990;7.880;2023-05-31T10:06:48;3.72;;;3.20;;
16640;SDS011;8434;47.990;7.880;2023-05-31T10:09:33;4.47;;;3.00;;
16640;SDS011;8434;47.990;7.880;2023-05-31T10:12:19;5.93;;;3.50;;
16640;SDS011;8434;47.990;7.880;2023-05-31T10:15:06;3.72;;;2.72;;
16640;SDS011;8434;47.990;7.880;2023-05-31T10:17:54;6.07;;;3.22;;
16640;SDS011;8434;47.990;7.880;2023-05-31T10:20:43;4.70;;;2.70;;
16640;SDS011;8434;47.990;7.880;2023-05-31T10:23:28;3.83;;;3.05;;
16640;SDS011;8434;47.990;7.880;2023-05-31T10:26:15;3.33;;;2.65;;
16640;SDS011;8434;47.990;7.880;2023-05-31T10:29:05;4.03;;;3.08;;
16640;SDS011;8434;47.990;7.880;2023-05-31T10:31:51;5.30;;;3.20;;
16640;SDS011;8434;47.990;7.880;2023-05-31T10:34:37;8.93;;;3.40;;
16640;SDS011;8434;47.990;7.880;2023-05-31T10:37:24;2.92;;;2.60;;
16640;SDS011;8434;47.990;7.880;2023-05-31T10:40:11;5.10;;;2.72;;
16640;SDS011;8434;47.990;7.880;2023-05-31T10:42:59;3.25;;;2.72;;
16640;SDS011;8434;47.990;7.880;2023-05-31T10:45:46;3.97;;;2.95;;
16640;SDS011;8434;47.990;7.880;2023-05-31T10:48:38;4.68;;;3.13;;
16640;SDS011;8434;47.990;7.880;2023-05-31T10:54:35;4.97;;;3.00;;
16640;SDS011;8434;47.990;7.880;2023-05-31T10:57:21;3.20;;;2.88;;
16640;SDS011;8434;47.990;7.880;2023-05-31T11:00:07;3.65;;;3.03;;
16640;SDS011;8434;47.990;7.880;2023-05-31T11:02:56;6.05;;;2.78;;
16640;SDS011;8434;47.990;7.880;2023-05-31T11:05:53;3.08;;;2.78;;
16640;SDS011;8434;47.990;7.880;2023-05-31T11:08:38;5.40;;;3.30;;
16640;SDS011;8434;47.990;7.880;2023-05-31T11:11:42;2.92;;;2.55;;
16640;SDS011;8434;47.990;7.880;2023-05-31T11:14:30;5.15;;;2.63;;
16640;SDS011;8434;47.990;7.880;2023-05-31T11:17:16;3.85;;;2.88;;
16640;SDS011;8434;47.990;7.880;2023-05-31T11:20:01;5.10;;;2.65;;
16640;SDS011;8434;47.990;7.880;2023-05-31T11:22:47;7.15;;;3.38;;
16640;SDS011;8434;47.990;7.880;2023-05-31T11:25:32;4.63;;;2.70;;
16640;SDS011;8434;47.990;7.880;2023-05-31T11:28:20;6.65;;;2.90;;
16640;SDS011;8434;47.990;7.880;2023-05-31T11:31:06;4.88;;;2.90;;
16640;SDS011;8434;47.990;7.880;2023-05-31T11:33:51;7.60;;;2.88;;
16640;SDS011;8434;47.990;7.880;2023-05-31T11:36:37;3.80;;;2.97;;
16640;SDS011;8434;47.990;7.880;2023-05-31T11:39:23;5.18;;;2.65;;
16640;SDS011;8434;47.990;7.880;2023-05-31T11:42:08;4.00;;;2.53;;
16640;SDS011;8434;47.990;7.880;2023-05-31T11:44:55;5.30;;;2.83;;
16640;SDS011;8434;47.990;7.880;2023-05-31T11:47:52;6.45;;;3.35;;
16640;SDS011;8434;47.990;7.880;2023-05-31T11:50:38;3.38;;;2.92;;
16640;SDS011;8434;47.990;7.880;2023-05-31T11:53:26;4.90;;;2.60;;
16640;SDS011;8434;47.990;7.880;2023-05-31T11:56:11;4.20;;;2.83;;
16640;SDS011;8434;47.990;7.880;2023-05-31T11:58:59;3.90;;;2.60;;
16640;SDS011;8434;47.990;7.880;2023-05-31T12:01:46;3.60;;;2.78;;
16640;SDS011;8434;47.990;7.880;2023-05-31T12:04:32;3.88;;;2.78;;
16640;SDS011;8434;47.990;7.880;2023-05-31T12:07:17;3.92;;;2.92;;
16640;SDS011;8434;47.990;7.880;2023-05-31T12:10:04;4.57;;;3.00;;
16640;SDS011;8434;47.990;7.880;2023-05-31T12:12:50;5.40;;;2.97;;
16640;SDS011;8434;47.990;7.880;2023-05-31T12:15:35;3.53;;;2.55;;
16640;SDS011;8434;47.990;7.880;2023-05-31T12:18:22;3.65;;;3.00;;
16640;SDS011;8434;47.990;7.880;2023-05-31T12:21:09;6.30;;;2.92;;
16640;SDS011;8434;47.990;7.880;2023-05-31T12:23:56;5.45;;;2.65;;
16640;SDS011;8434;47.990;7.880;2023-05-31T12:26:42;3.30;;;2.75;;
16640;SDS011;8434;47.990;7.880;2023-05-31T12:29:29;4.07;;;3.05;;
16640;SDS011;8434;47.990;7.880;2023-05-31T12:32:14;3.65;;;3.00;;
16640;SDS011;8434;47.990;7.880;2023-05-31T12:35:07;4.78;;;3.30;;
16640;SDS011;8434;47.990;7.880;2023-05-31T12:37:52;3.97;;;3.20;;
16640;SDS011;8434;47.990;7.880;2023-05-31T12:40:38;6.07;;;3.05;;
16640;SDS011;8434;47.990;7.880;2023-05-31T12:43:25;5.38;;;2.92;;
16640;SDS011;8434;47.990;7.880;2023-05-31T12:46:15;4.22;;;2.80;;
16640;SDS011;8434;47.990;7.880;2023-05-31T12:49:09;2.70;;;2.50;;
16640;SDS011;8434;47.990;7.880;2023-05-31T12:51:59;6.43;;;2.50;;
16640;SDS011;8434;47.990;7.880;2023-05-31T12:54:45;4.55;;;2.55;;
16640;SDS011;8434;47.990;7.880;2023-05-31T12:57:31;5.68;;;2.70;;
16640;SDS011;8434;47.990;7.880;2023-05-31T13:00:17;4.47;;;3.15;;
16640;SDS011;8434;47.990;7.880;2023-05-31T13:03:02;4.10;;;2.80;;
16640;SDS011;8434;47.990;7.880;2023-05-31T13:05:48;4.75;;;2.90;;
16640;SDS011;8434;47.990;7.880;2023-05-31T13:08:35;7.25;;;2.88;;
16640;SDS011;8434;47.990;7.880;2023-05-31T13:11:21;3.10;;;2.40;;
16640;SDS011;8434;47.990;7.880;2023-05-31T13:14:07;4.20;;;2.65;;
16640;SDS011;8434;47.990;7.880;2023-05-31T13:16:52;3.03;;;2.50;;
16640;SDS011;8434;47.990;7.880;2023-05-31T13:19:38;4.75;;;2.63;;
16640;SDS011;8434;47.990;7.880;2023-05-31T13:22:23;4.32;;;3.10;;
16640;SDS011;8434;47.990;7.880;2023-05-31T13:25:10;5.32;;;2.88;;
16640;SDS011;8434;47.990;7.880;2023-05-31T13:27:55;3.85;;;2.53;;
16640;SDS011;8434;47.990;7.880;2023-05-31T13:30:41;5.85;;;2.55;;
16640;SDS011;8434;47.990;7.880;2023-05-31T13:33:26;4.35;;;2.85;;
16640;SDS011;8434;47.990;7.880;2023-05-31T13:36:12;4.00;;;2.70;;
16640;SDS011;8434;47.990;7.880;2023-05-31T13:38:57;3.90;;;2.40;;
16640;SDS011;8434;47.990;7.880;2023-05-31T13:41:44;4.60;;;3.17;;
16640;SDS011;8434;47.990;7.880;2023-05-31T13:44:30;3.25;;;2.60;;
16640;SDS011;8434;47.990;7.880;2023-05-31T13:47:16;4.03;;;2.90;;
16640;SDS011;8434;47.990;7.880;2023-05-31T13:50:01;6.22;;;3.15;;
16640;SDS011;8434;47.990;7.880;2023-05-31T13:52:47;7.15;;;2.65;;
16640;SDS011;8434;47.990;7.880;2023-05-31T13:55:33;3.45;;;2.63;;
16640;SDS011;8434;47.990;7.880;2023-05-31T13:58:19;4.00;;;2.90;;
16640;SDS011;8434;47.990;7.880;2023-05-31T14:01:05;3.65;;;2.50;;
16640;SDS011;8434;47.990;7.880;2023-05-31T14:03:51;3.55;;;2.58;;
16640;SDS011;8434;47.990;7.880;2023-05-31T14:06:38;4.85;;;2.50;;
16640;SDS011;8434;47.990;7.880;2023-05-31T14:09:23;2.40;;;2.20;;
16640;SDS011;8434;47.990;7.880;2023-05-31T14:12:10;5.30;;;2.83;;
16640;SDS011;8434;47.990;7.880;2023-05-31T14:14:57;3.97;;;2.55;;
16640;SDS011;8434;47.990;7.880;2023-05-31T14:17:43;3.63;;;2.42;;
16640;SDS011;8434;47.990;7.880;2023-05-31T14:20:28;5.20;;;2.78;;
16640;SDS011;8434;47.990;7.880;2023-05-31T14:23:14;4.53;;;2.83;;
16640;SDS011;8434;47.990;7.880;2023-05-31T14:25:59;3.38;;;2.60;;
16640;SDS011;8434;47.990;7.880;2023-05-31T14:28:45;3.25;;;2.55;;
16640;SDS011;8434;47.990;7.880;2023-05-31T14:31:32;5.82;;;2.75;;
16640;SDS011;8434;47.990;7.880;2023-05-31T14:34:17;2.63;;;2.40;;
16640;SDS011;8434;47.990;7.880;2023-05-31T14:37:03;4.45;;;2.30;;
16640;SDS011;8434;47.990;7.880;2023-05-31T14:39:48;5.18;;;2.75;;
16640;SDS011;8434;47.990;7.880;2023-05-31T14:42:34;3.33;;;2.25;;
16640;SDS011;8434;47.990;7.880;2023-05-31T14:45:19;4.70;;;2.55;;
16640;SDS011;8434;47.990;7.880;2023-05-31T14:48:06;4.05;;;2.60;;
16640;SDS011;8434;47.990;7.880;2023-05-31T14:50:51;3.95;;;2.72;;
16640;SDS011;8434;47.990;7.880;2023-05-31T14:53:37;3.45;;;2.20;;
16640;SDS011;8434;47.990;7.880;2023-05-31T14:56:22;4.10;;;2.30;;
16640;SDS011;8434;47.990;7.880;2023-05-31T14:59:07;2.95;;;2.30;;
16640;SDS011;8434;47.990;7.880;2023-05-31T15:01:53;4.80;;;2.60;;
16640;SDS011;8434;47.990;7.880;2023-05-31T15:04:40;3.95;;;2.30;;
16640;SDS011;8434;47.990;7.880;2023-05-31T15:07:26;4.03;;;2.33;;
16640;SDS011;8434;47.990;7.880;2023-05-31T15:10:11;5.53;;;2.67;;
16640;SDS011;8434;47.990;7.880;2023-05-31T15:12:57;5.78;;;2.45;;
16640;SDS011;8434;47.990;7.880;2023-05-31T15:15:42;4.53;;;2.58;;
16640;SDS011;8434;47.990;7.880;2023-05-31T15:18:27;4.85;;;2.30;;
16640;SDS011;8434;47.990;7.880;2023-05-31T15:21:14;3.83;;;2.20;;
16640;SDS011;8434;47.990;7.880;2023-05-31T15:24:00;3.80;;;2.03;;
16640;SDS011;8434;47.990;7.880;2023-05-31T15:26:45;8.18;;;2.38;;
16640;SDS011;8434;47.990;7.880;2023-05-31T15:29:30;7.10;;;2.30;;
16640;SDS011;8434;47.990;7.880;2023-05-31T15:32:17;7.05;;;2.70;;
16640;SDS011;8434;47.990;7.880;2023-05-31T15:35:03;4.55;;;2.47;;
16640;SDS011;8434;47.990;7.880;2023-05-31T15:37:49;5.43;;;2.13;;
16640;SDS011;8434;47.990;7.880;2023-05-31T15:40:35;7.30;;;2.13;;
16640;SDS011;8434;47.990;7.880;2023-05-31T15:43:20;3.50;;;2.63;;
16640;SDS011;8434;47.990;7.880;2023-05-31T15:46:06;4.22;;;2.33;;
16640;SDS011;8434;47.990;7.880;2023-05-31T15:48:52;9.80;;;2.60;;
16640;SDS011;8434;47.990;7.880;2023-05-31T15:51:37;6.53;;;2.83;;
16640;SDS011;8434;47.990;7.880;2023-05-31T15:54:24;4.65;;;2.40;;
16640;SDS011;8434;47.990;7.880;2023-05-31T15:57:09;5.47;;;2.42;;
16640;SDS011;8434;47.990;7.880;2023-05-31T15:59:54;4.63;;;2.83;;
16640;SDS011;8434;47.990;7.880;2023-05-31T16:02:40;3.55;;;2.20;;
16640;SDS011;8434;47.990;7.880;2023-05-31T16:05:25;2.83;;;2.22;;
16640;SDS011;8434;47.990;7.880;2023-05-31T16:08:11;4.03;;;2.55;;
16640;SDS011;8434;47.990;7.880;2023-05-31T16:10:57;2.78;;;2.00;;
16640;SDS011;8434;47.990;7.880;2023-05-31T16:13:43;2.63;;;1.90;;
16640;SDS011;8434;47.990;7.880;2023-05-31T16:16:28;4.00;;;2.25;;
16640;SDS011;8434;47.990;7.880;2023-05-31T16:19:15;2.35;;;1.98;;
16640;SDS011;8434;47.990;7.880;2023-05-31T16:22:00;3.47;;;2.15;;
16640;SDS011;8434;47.990;7.880;2023-05-31T16:24:46;2.92;;;2.05;;
16640;SDS011;8434;47.990;7.880;2023-05-31T16:27:33;5.63;;;2.40;;
16640;SDS011;8434;47.990;7.880;2023-05-31T16:30:19;3.70;;;2.00;;
16640;SDS011;8434;47.990;7.880;2023-05-31T16:33:04;5.07;;;2.38;;
16640;SDS011;8434;47.990;7.880;2023-05-31T16:35:52;4.65;;;2.20;;
16640;SDS011;8434;47.990;7.880;2023-05-31T16:38:37;4.78;;;2.63;;
16640;SDS011;8434;47.990;7.880;2023-05-31T16:41:24;4.28;;;2.33;;
16640;SDS011;8434;47.990;7.880;2023-05-31T16:44:11;7.95;;;2.63;;
16640;SDS011;8434;47.990;7.880;2023-05-31T16:46:56;4.30;;;2.00;;
16640;SDS011;8434;47.990;7.880;2023-05-31T16:49:42;4.07;;;2.33;;
16640;SDS011;8434;47.990;7.880;2023-05-31T16:52:28;4.57;;;2.33;;
16640;SDS011;8434;47.990;7.880;2023-05-31T16:55:14;6.28;;;2.53;;
16640;SDS011;8434;47.990;7.880;2023-05-31T16:57:59;8.30;;;2.25;;
16640;SDS011;8434;47.990;7.880;2023-05-31T17:00:46;3.50;;;1.85;;
16640;SDS011;8434;47.990;7.880;2023-05-31T17:03:32;4.38;;;1.90;;